createdAt,value
2023-05-10T00:02:01.237Z,96.11
2023-05-10T00:04:33.386Z,96.92
2023-05-10T00:07:05.258Z,96.52
2023-05-10T00:09:36.601Z,97.33
2023-05-10T00:12:07.123Z,97.14
2023-05-10T00:14:36.534Z,97.54
2023-05-10T00:17:06.404Z,97.42
2023-05-10T00:19:35.167Z,97.82
2023-05-10T00:22:04.240Z,97.45
2023-05-10T00:24:34.726Z,96.92
2023-05-10T00:27:17.068Z,98.06
2023-05-10T00:29:50.504Z,97.58
2023-05-10T00:32:21.206Z,97.99
2023-05-10T00:34:52.411Z,97.25
2023-05-10T00:37:29.248Z,97.29
2023-05-10T00:40:04.017Z,97.88
2023-05-10T00:42:32.394Z,97.94
2023-05-10T00:45:06.222Z,97.68
2023-05-10T00:47:35.068Z,98.10
2023-05-10T00:50:05.953Z,97.37
2023-05-10T00:52:42.356Z,98.00
2023-05-10T00:55:13.489Z,97.12
2023-05-10T00:57:41.840Z,97.95
2023-05-10T01:00:20.687Z,96.97
2023-05-10T01:02:50.665Z,97.17
2023-05-10T01:05:27.045Z,97.33
2023-05-10T01:08:01.006Z,97.65
2023-05-10T01:10:31.481Z,97.63
2023-05-10T01:13:04.154Z,97.88
2023-05-10T01:15:36.879Z,97.47
2023-05-10T01:18:07.447Z,97.18
2023-05-10T01:20:45.604Z,97.36
2023-05-10T01:23:33.931Z,96.98
2023-05-10T01:26:30.540Z,97.19
2023-05-10T01:29:41.061Z,97.05
2023-05-10T01:32:21.884Z,96.97
2023-05-10T01:35:02.836Z,96.70
2023-05-10T01:37:44.474Z,96.72
2023-05-10T01:40:22.095Z,96.30
2023-05-10T01:42:55.526Z,95.85
2023-05-10T01:45:34.627Z,96.60
2023-05-10T01:48:08.507Z,96.27
2023-05-10T01:50:45.432Z,96.82
2023-05-10T01:53:19.385Z,97.32
2023-05-10T01:55:51.378Z,96.98
2023-05-10T01:58:25.290Z,95.73
2023-05-10T02:00:55.554Z,96.92
2023-05-10T02:03:29.030Z,97.13
2023-05-10T02:05:59.571Z,97.03
2023-05-10T02:08:31.160Z,96.85
2023-05-10T02:11:01.017Z,96.51
2023-05-10T02:13:32.499Z,96.11
2023-05-10T02:16:06.413Z,96.82
2023-05-10T02:18:44.335Z,96.39
2023-05-10T02:21:16.919Z,96.58
2023-05-10T02:23:47.329Z,96.15
2023-05-10T02:26:18.979Z,96.78
2023-05-10T02:28:47.972Z,96.88
2023-05-10T02:31:17.195Z,97.71
2023-05-10T02:33:55.170Z,96.76
2023-05-10T02:36:24.840Z,96.96
2023-05-10T02:38:56.846Z,96.23
2023-05-10T02:41:29.529Z,96.78
2023-05-10T02:44:01.750Z,96.83
2023-05-10T02:46:34.106Z,96.96
2023-05-10T02:49:05.071Z,96.91
2023-05-10T02:51:40.038Z,96.61
2023-05-10T02:54:14.674Z,96.40
2023-05-10T02:56:49.617Z,96.86
2023-05-10T02:59:20.747Z,96.56
2023-05-10T03:01:52.470Z,96.83
2023-05-10T03:04:23.228Z,96.22
2023-05-10T03:06:52.765Z,96.37
2023-05-10T03:09:26.074Z,96.52
2023-05-10T03:12:03.002Z,96.56
2023-05-10T03:14:47.166Z,96.70
2023-05-10T03:17:29.117Z,96.73
2023-05-10T03:20:04.712Z,96.59
2023-05-10T03:22:37.435Z,96.81
2023-05-10T03:25:09.439Z,96.77
2023-05-10T03:27:44.130Z,96.58
2023-05-10T03:30:14.764Z,96.32
2023-05-10T03:32:49.726Z,96.66
2023-05-10T03:35:21.566Z,96.82
2023-05-10T03:37:51.790Z,96.78
2023-05-10T03:40:20.757Z,96.89
2023-05-10T03:42:49.024Z,96.28
2023-05-10T03:45:20.374Z,96.91
2023-05-10T03:47:48.630Z,96.68
2023-05-10T03:50:21.656Z,96.88
2023-05-10T03:52:56.887Z,96.43
2023-05-10T03:55:27.532Z,96.26
2023-05-10T03:58:00.353Z,96.16
2023-05-10T04:00:29.004Z,95.45
2023-05-10T04:02:58.045Z,95.42
2023-05-10T04:05:32.492Z,95.74
2023-05-10T04:08:02.532Z,95.96
2023-05-10T04:10:31.045Z,95.61
2023-05-10T04:13:09.469Z,95.97
2023-05-10T04:15:38.133Z,95.99
2023-05-10T04:18:09.404Z,95.66
2023-05-10T04:20:41.468Z,96.02
2023-05-10T04:23:16.222Z,96.06
2023-05-10T04:25:44.126Z,96.01
2023-05-10T04:28:12.478Z,95.43
2023-05-10T04:30:41.546Z,95.94
2023-05-10T04:33:10.788Z,94.76
2023-05-10T04:35:43.564Z,94.81
2023-05-10T04:38:12.386Z,94.71
2023-05-10T04:40:41.507Z,95.13
2023-05-10T04:43:10.558Z,95.15
2023-05-10T04:45:40.527Z,95.03
2023-05-10T04:48:12.644Z,95.62
2023-05-10T04:50:46.522Z,93.89
2023-05-10T04:53:16.003Z,93.96
2023-05-10T04:55:44.902Z,94.38
2023-05-10T04:58:15.677Z,93.54
2023-05-10T05:00:46.579Z,93.74
2023-05-10T05:03:15.306Z,93.97
2023-05-10T05:05:49.781Z,93.96
2023-05-10T05:08:21.024Z,92.75
2023-05-10T05:10:51.218Z,93.07
2023-05-10T05:13:19.661Z,92.92
2023-05-10T05:15:50.235Z,92.84
2023-05-10T05:18:19.040Z,93.70
2023-05-10T05:20:52.210Z,92.80
2023-05-10T05:23:22.560Z,93.17
2023-05-10T05:25:55.499Z,92.97
2023-05-10T05:28:25.561Z,92.91
2023-05-10T05:31:03.620Z,92.48
2023-05-10T05:33:32.158Z,92.51
2023-05-10T05:36:02.668Z,92.80
2023-05-10T05:38:32.746Z,93.33
2023-05-10T05:41:01.640Z,93.28
2023-05-10T05:43:30.158Z,93.32
2023-05-10T05:46:12.045Z,92.59
2023-05-10T05:48:40.468Z,92.17
2023-05-10T05:51:10.135Z,92.95
2023-05-10T05:53:38.607Z,91.23
2023-05-10T05:56:10.599Z,91.66
2023-05-10T05:58:39.969Z,91.32
2023-05-10T06:01:11.955Z,92.09
2023-05-10T06:03:40.221Z,91.34
2023-05-10T06:06:10.383Z,91.77
2023-05-10T06:08:38.197Z,91.16
2023-05-10T06:11:06.870Z,91.02
2023-05-10T06:13:37.570Z,90.14
2023-05-10T06:16:08.482Z,89.20
2023-05-10T06:18:48.900Z,88.96
2023-05-10T06:21:18.385Z,88.23
2023-05-10T06:23:50.610Z,87.17
2023-05-10T06:26:19.309Z,88.46
2023-05-10T06:28:54.399Z,88.69
2023-05-10T06:31:23.666Z,87.82
2023-05-10T06:34:01.582Z,87.80
2023-05-10T06:36:32.705Z,88.10
2023-05-10T06:39:04.025Z,87.74
2023-05-10T06:41:33.587Z,88.23
2023-05-10T06:44:01.819Z,86.39
2023-05-10T06:46:31.770Z,87.29
2023-05-10T06:49:01.941Z,86.16
2023-05-10T06:51:38.029Z,86.61
2023-05-10T06:54:09.294Z,86.24
2023-05-10T06:56:39.806Z,85.60
2023-05-10T06:59:09.112Z,84.95
2023-05-10T07:01:37.290Z,84.39
2023-05-10T07:04:05.939Z,84.16
2023-05-10T07:06:36.716Z,84.91
2023-05-10T07:09:06.865Z,83.18
2023-05-10T07:11:35.006Z,83.58
2023-05-10T07:14:03.504Z,83.63
2023-05-10T07:16:32.900Z,84.12
2023-05-10T07:19:08.815Z,84.08
2023-05-10T07:21:38.668Z,83.41
2023-05-10T07:24:11.586Z,82.29
2023-05-10T07:26:40.652Z,81.00
2023-05-10T07:29:16.460Z,82.03
2023-05-10T07:31:48.438Z,82.54
2023-05-10T07:34:19.258Z,80.98
2023-05-10T07:36:49.302Z,79.52
2023-05-10T07:39:26.497Z,78.77
2023-05-10T07:41:55.845Z,79.62
2023-05-10T07:44:23.778Z,79.96
2023-05-10T07:46:53.268Z,79.24
2023-05-10T07:49:22.415Z,80.47
2023-05-10T07:51:52.659Z,80.29
2023-05-10T07:54:23.018Z,82.20
2023-05-10T07:56:52.290Z,80.58
2023-05-10T07:59:22.711Z,80.85
2023-05-10T08:01:50.799Z,79.82
2023-05-10T08:04:22.268Z,77.68
2023-05-10T08:06:55.985Z,76.06
2023-05-10T08:09:25.158Z,75.58
2023-05-10T08:11:54.857Z,76.07
2023-05-10T08:14:23.033Z,77.70
2023-05-10T08:16:53.566Z,76.17
2023-05-10T08:19:23.429Z,75.12
2023-05-10T08:21:53.610Z,73.16
2023-05-10T08:24:24.133Z,74.37
2023-05-10T08:26:52.717Z,74.16
2023-05-10T08:29:22.508Z,71.30
2023-05-10T08:31:52.020Z,71.30
2023-05-10T08:34:23.623Z,71.11
2023-05-10T08:36:53.828Z,73.12
2023-05-10T08:39:30.418Z,72.34
2023-05-10T08:42:04.724Z,70.58
2023-05-10T08:44:37.554Z,68.39
2023-05-10T08:47:08.067Z,72.04
2023-05-10T08:49:40.780Z,72.14
2023-05-10T08:52:10.148Z,72.58
2023-05-10T08:54:41.817Z,71.96
2023-05-10T08:57:11.705Z,72.31
2023-05-10T08:59:41.504Z,71.98
2023-05-10T09:02:12.605Z,70.15
2023-05-10T09:04:40.896Z,70.87
2023-05-10T09:07:08.993Z,69.67
2023-05-10T09:09:39.799Z,69.95
2023-05-10T09:12:12.111Z,69.36
2023-05-10T09:14:40.916Z,69.36
2023-05-10T09:17:10.802Z,69.75
2023-05-10T09:19:41.264Z,70.95
2023-05-10T09:22:09.498Z,69.20
2023-05-10T09:24:43.702Z,67.39
2023-05-10T09:27:20.764Z,69.27
2023-05-10T09:29:49.092Z,66.27
2023-05-10T09:32:19.674Z,66.42
2023-05-10T09:34:48.268Z,69.00
2023-05-10T09:37:19.311Z,67.42
2023-05-10T09:39:49.490Z,64.84
2023-05-10T09:42:21.893Z,65.43
2023-05-10T09:44:50.692Z,64.46
2023-05-10T09:47:19.968Z,66.21
2023-05-10T09:49:56.367Z,71.07
2023-05-10T09:52:27.396Z,76.15
2023-05-10T09:54:56.997Z,77.87
2023-05-10T09:57:35.325Z,77.10
2023-05-10T10:00:05.805Z,76.11
2023-05-10T10:02:38.323Z,77.22
2023-05-10T10:05:08.283Z,77.05
2023-05-10T10:07:37.279Z,69.99
2023-05-10T10:10:12.665Z,71.82
2023-05-10T10:12:43.640Z,68.64
2023-05-10T10:15:14.059Z,65.61
2023-05-10T10:17:46.779Z,67.15
2023-05-10T10:20:18.036Z,72.96
2023-05-10T10:22:46.933Z,75.98
2023-05-10T10:25:18.422Z,78.56
2023-05-10T10:28:01.152Z,79.68
2023-05-10T10:30:41.286Z,81.75
2023-05-10T10:33:33.186Z,80.94
2023-05-10T10:36:12.248Z,81.46
2023-05-10T10:39:10.981Z,79.22
2023-05-10T10:41:44.796Z,77.89
2023-05-10T10:44:37.406Z,77.45
2023-05-10T10:47:15.105Z,77.14
2023-05-10T10:49:52.974Z,76.23
2023-05-10T10:52:29.584Z,74.32
2023-05-10T10:55:04.131Z,75.48
2023-05-10T10:57:47.862Z,76.18
2023-05-10T11:00:39.296Z,76.55
2023-05-10T11:03:09.125Z,76.04
2023-05-10T11:05:41.720Z,71.30
2023-05-10T11:08:14.396Z,70.28
2023-05-10T11:10:52.925Z,69.71
2023-05-10T11:13:40.275Z,66.67
2023-05-10T11:16:17.192Z,67.81
2023-05-10T11:18:58.890Z,67.90
2023-05-10T11:21:28.570Z,67.08
2023-05-10T11:23:58.484Z,65.70
2023-05-10T11:26:29.450Z,63.66
2023-05-10T11:29:00.195Z,65.77
2023-05-10T11:31:29.728Z,65.49
2023-05-10T11:34:02.942Z,63.83
2023-05-10T11:36:35.625Z,62.89
2023-05-10T11:39:05.487Z,62.25
2023-05-10T11:41:34.672Z,61.53
2023-05-10T11:44:04.579Z,61.31
2023-05-10T11:46:33.730Z,59.49
2023-05-10T11:49:08.141Z,60.69
2023-05-10T11:51:38.106Z,60.23
2023-05-10T11:54:11.050Z,62.64
2023-05-10T11:56:41.467Z,68.56
2023-05-10T11:59:11.177Z,69.63
2023-05-10T12:01:40.093Z,70.33
2023-05-10T12:04:16.772Z,72.99
2023-05-10T12:06:47.982Z,74.17
2023-05-10T12:09:31.861Z,76.33
2023-05-10T12:12:09.060Z,76.32
2023-05-10T12:14:40.277Z,77.10
2023-05-10T12:17:08.829Z,76.01
2023-05-10T12:19:41.008Z,76.05
2023-05-10T12:22:09.337Z,76.46
2023-05-10T12:24:41.026Z,75.67
2023-05-10T12:27:15.544Z,75.37
2023-05-10T12:29:47.987Z,74.63
2023-05-10T12:32:18.346Z,72.17
2023-05-10T12:34:49.646Z,70.85
2023-05-10T12:37:17.456Z,69.87
2023-05-10T12:39:48.810Z,66.95
2023-05-10T12:42:17.363Z,64.72
2023-05-10T12:44:48.407Z,63.00
2023-05-10T12:47:18.757Z,61.46
2023-05-10T12:49:48.524Z,63.65
2023-05-10T12:52:16.619Z,62.36
2023-05-10T12:54:45.433Z,58.67
2023-05-10T12:57:20.410Z,56.28
2023-05-10T12:59:53.594Z,56.39
2023-05-10T13:02:24.388Z,52.30
2023-05-10T13:04:53.743Z,54.51
2023-05-10T13:07:22.633Z,50.52
2023-05-10T13:09:50.798Z,50.59
2023-05-10T13:12:19.025Z,53.20
2023-05-10T13:14:48.603Z,51.31
2023-05-10T13:17:18.304Z,51.77
2023-05-10T13:19:48.235Z,51.50
2023-05-10T13:22:28.641Z,50.65
2023-05-10T13:25:05.872Z,48.67
2023-05-10T13:27:35.159Z,52.44
2023-05-10T13:30:29.845Z,50.32
2023-05-10T13:33:02.670Z,50.88
2023-05-10T13:35:32.496Z,49.35
2023-05-10T13:38:03.885Z,49.95
2023-05-10T13:40:32.297Z,48.52
2023-05-10T13:43:01.509Z,49.16
2023-05-10T13:45:31.379Z,48.54
2023-05-10T13:48:08.403Z,47.81
2023-05-10T13:50:36.763Z,46.02
2023-05-10T13:53:04.918Z,43.98
2023-05-10T13:55:34.576Z,40.98
2023-05-10T13:58:04.151Z,38.39
2023-05-10T14:00:34.766Z,39.83
2023-05-10T14:03:15.672Z,37.64
2023-05-10T14:05:46.939Z,39.07
2023-05-10T14:08:15.832Z,42.38
2023-05-10T14:10:44.338Z,42.53
2023-05-10T14:13:14.768Z,43.20
2023-05-10T14:15:43.727Z,40.21
2023-05-10T14:18:14.193Z,40.86
2023-05-10T14:20:44.353Z,39.68
2023-05-10T14:23:13.603Z,39.25
2023-05-10T14:25:42.756Z,37.01
2023-05-10T14:28:13.172Z,38.89
2023-05-10T14:30:42.521Z,41.11
2023-05-10T14:33:12.548Z,41.59
2023-05-10T14:35:42.844Z,40.75
2023-05-10T14:38:11.796Z,40.56
2023-05-10T14:40:40.152Z,41.84
2023-05-10T14:43:08.561Z,43.51
2023-05-10T14:45:37.021Z,42.72
2023-05-10T14:48:05.677Z,41.72
2023-05-10T14:50:36.650Z,41.67
2023-05-10T14:53:06.651Z,42.89
2023-05-10T14:55:37.931Z,42.77
2023-05-10T14:58:07.185Z,43.92
2023-05-10T15:00:36.424Z,44.71
2023-05-10T15:03:09.612Z,40.00
2023-05-10T15:05:38.789Z,38.36
2023-05-10T15:08:08.196Z,38.40
2023-05-10T15:10:36.570Z,39.92
2023-05-10T15:13:07.242Z,37.91
2023-05-10T15:15:38.546Z,38.17
2023-05-10T15:18:11.428Z,41.61
2023-05-10T15:20:40.978Z,39.87
2023-05-10T15:23:11.336Z,37.79
2023-05-10T15:25:41.592Z,39.63
2023-05-10T15:28:11.234Z,40.14
2023-05-10T15:30:41.513Z,37.99
2023-05-10T15:33:14.431Z,41.13
2023-05-10T15:35:44.806Z,38.32
2023-05-10T15:38:14.761Z,40.96
2023-05-10T15:40:43.459Z,41.80
2023-05-10T15:43:11.563Z,42.56
2023-05-10T15:45:40.650Z,41.77
2023-05-10T15:48:08.735Z,41.34
2023-05-10T15:50:36.752Z,42.70
2023-05-10T15:55:50.562Z,48.96
2023-05-10T15:58:20.214Z,48.40
2023-05-10T16:00:48.352Z,49.67
2023-05-10T16:03:19.175Z,48.77
2023-05-10T16:05:47.687Z,47.78
2023-05-10T16:08:17.866Z,47.72
2023-05-10T16:10:46.985Z,49.49
2023-05-10T16:13:19.363Z,48.22
2023-05-10T16:15:48.510Z,48.97
2023-05-10T16:18:18.959Z,48.66
2023-05-10T16:20:47.395Z,49.58
2023-05-10T16:23:16.339Z,49.66
2023-05-10T16:25:44.225Z,48.43
2023-05-10T16:28:20.984Z,50.95
2023-05-10T16:30:52.067Z,48.74
2023-05-10T16:33:19.932Z,48.61
2023-05-10T16:35:47.806Z,48.39
2023-05-10T16:38:16.666Z,49.22
2023-05-10T16:40:44.890Z,51.20
2023-05-10T16:43:15.550Z,50.94
2023-05-10T16:45:45.336Z,53.27
2023-05-10T16:48:16.383Z,54.26
2023-05-10T16:50:47.801Z,55.00
2023-05-10T16:53:18.402Z,55.05
2023-05-10T16:55:47.987Z,54.60
2023-05-10T16:58:18.727Z,54.76
2023-05-10T17:00:48.773Z,54.47
2023-05-10T17:03:18.807Z,53.96
2023-05-10T17:05:47.017Z,55.17
2023-05-10T17:08:20.906Z,55.20
2023-05-10T17:10:49.674Z,55.52
2023-05-10T17:13:19.773Z,54.51
2023-05-10T17:15:49.656Z,56.03
2023-05-10T17:18:23.471Z,55.91
2023-05-10T17:20:55.319Z,56.38
2023-05-10T17:23:25.433Z,55.33
2023-05-10T17:25:53.745Z,55.41
2023-05-10T17:28:22.907Z,56.35
2023-05-10T17:30:59.538Z,56.17
2023-05-10T17:33:29.149Z,56.26
2023-05-10T17:35:57.411Z,56.48
2023-05-10T17:38:25.798Z,56.93
2023-05-10T17:40:54.076Z,56.91
2023-05-10T17:43:23.508Z,57.30
2023-05-10T17:45:53.250Z,56.94
2023-05-10T17:48:22.999Z,57.41
2023-05-10T17:50:54.790Z,56.81
2023-05-10T17:53:26.582Z,56.75
2023-05-10T17:55:59.347Z,56.92
2023-05-10T17:58:27.993Z,56.80
2023-05-10T18:00:58.393Z,57.11
2023-05-10T18:03:35.948Z,56.75
2023-05-10T18:06:07.974Z,57.34
2023-05-10T18:08:38.543Z,57.33
2023-05-10T18:11:08.860Z,57.80
2023-05-10T18:13:36.903Z,58.21
2023-05-10T18:16:08.797Z,58.35
2023-05-10T18:18:43.568Z,58.92
2023-05-10T18:21:14.589Z,58.57
2023-05-10T18:23:43.491Z,59.26
2023-05-10T18:26:16.177Z,57.61
2023-05-10T18:29:01.498Z,59.36
2023-05-10T18:31:32.099Z,59.73
2023-05-10T18:34:05.868Z,58.26
2023-05-10T18:36:33.978Z,59.66
2023-05-10T18:39:02.329Z,59.64
2023-05-10T18:41:31.907Z,58.91
2023-05-10T18:44:00.750Z,60.13
2023-05-10T18:46:30.557Z,60.72
2023-05-10T18:48:58.604Z,60.17
2023-05-10T18:51:31.576Z,60.63
2023-05-10T18:53:59.487Z,60.97
2023-05-10T18:56:27.742Z,60.73
2023-05-10T18:58:57.691Z,61.22
2023-05-10T19:01:27.138Z,60.69
2023-05-10T19:03:55.686Z,61.39
2023-05-10T19:06:25.195Z,62.46
2023-05-10T19:08:57.644Z,63.44
2023-05-10T19:11:26.320Z,63.47
2023-05-10T19:13:55.052Z,63.27
2023-05-10T19:16:28.869Z,63.48
2023-05-10T19:19:01.917Z,62.29
2023-05-10T19:21:34.252Z,62.10
2023-05-10T19:24:04.118Z,62.71
2023-05-10T19:26:32.276Z,62.34
2023-05-10T19:29:04.836Z,63.16
2023-05-10T19:31:37.624Z,63.88
2023-05-10T19:34:09.252Z,64.16
2023-05-10T19:36:37.703Z,63.84
2023-05-10T19:39:16.297Z,65.62
2023-05-10T19:41:45.738Z,67.27
2023-05-10T19:44:17.444Z,69.67
2023-05-10T19:46:45.835Z,72.12
2023-05-10T19:49:14.630Z,73.28
2023-05-10T19:51:42.811Z,75.63
2023-05-10T19:54:17.273Z,71.74
2023-05-10T19:56:46.454Z,71.45
2023-05-10T19:59:20.660Z,72.13
2023-05-10T20:01:50.164Z,72.61
2023-05-10T20:04:17.984Z,75.21
2023-05-10T20:06:50.910Z,76.07
2023-05-10T20:09:21.818Z,76.92
2023-05-10T20:11:54.233Z,77.14
2023-05-10T20:14:22.715Z,75.87
2023-05-10T20:16:50.918Z,76.19
2023-05-10T20:19:19.529Z,76.25
2023-05-10T20:21:48.345Z,77.01
2023-05-10T20:24:21.008Z,77.88
2023-05-10T20:26:54.010Z,78.03
2023-05-10T20:29:22.340Z,80.73
2023-05-10T20:31:52.811Z,81.28
2023-05-10T20:34:23.215Z,81.97
2023-05-10T20:36:52.104Z,82.54
2023-05-10T20:39:24.917Z,82.54
2023-05-10T20:41:56.045Z,83.41
2023-05-10T20:44:24.209Z,83.88
2023-05-10T20:47:08.786Z,84.38
2023-05-10T20:49:37.920Z,85.09
2023-05-10T20:52:06.649Z,84.55
2023-05-10T20:54:34.902Z,85.07
2023-05-10T20:57:14.693Z,85.09
2023-05-10T20:59:44.427Z,85.23
2023-05-10T21:02:13.895Z,85.62
2023-05-10T21:04:42.218Z,86.23
2023-05-10T21:07:10.363Z,85.70
2023-05-10T21:09:38.546Z,85.53
2023-05-10T21:12:11.287Z,85.52
2023-05-10T21:14:39.168Z,85.75
2023-05-10T21:17:09.163Z,86.25
2023-05-10T21:19:42.379Z,85.75
2023-05-10T21:22:11.250Z,85.47
2023-05-10T21:24:39.318Z,86.05
2023-05-10T21:27:09.108Z,86.84
2023-05-10T21:29:44.550Z,86.36
2023-05-10T21:32:14.259Z,85.38
2023-05-10T21:34:44.062Z,84.94
2023-05-10T21:37:12.256Z,85.19
2023-05-10T21:39:40.525Z,84.90
2023-05-10T21:42:10.760Z,85.19
2023-05-10T21:44:39.888Z,85.29
2023-05-10T21:47:13.903Z,86.59
2023-05-10T21:49:43.003Z,88.57
2023-05-10T21:52:11.996Z,88.64
2023-05-10T21:54:42.806Z,86.86
2023-05-10T21:57:12.241Z,87.61
2023-05-10T21:59:44.435Z,88.05
2023-05-10T22:02:13.142Z,87.74
2023-05-10T22:04:42.984Z,87.69
2023-05-10T22:07:13.034Z,87.72
2023-05-10T22:09:43.412Z,88.19
2023-05-10T22:12:15.836Z,90.05
2023-05-10T22:14:44.494Z,90.22
2023-05-10T22:17:14.344Z,89.54
2023-05-10T22:19:42.454Z,89.43
2023-05-10T22:22:13.255Z,90.11
2023-05-10T22:24:42.504Z,89.36
2023-05-10T22:27:12.281Z,89.55
2023-05-10T22:29:44.298Z,88.58
2023-05-10T22:32:15.219Z,87.76
2023-05-10T22:34:46.288Z,86.52
2023-05-10T22:37:17.848Z,84.39
2023-05-10T22:39:55.162Z,84.80
2023-05-10T22:42:23.155Z,85.05
2023-05-10T22:45:01.509Z,83.85
2023-05-10T22:47:33.840Z,83.82
2023-05-10T22:50:05.204Z,83.57
2023-05-10T22:52:36.133Z,83.25
2023-05-10T22:55:06.314Z,82.64
2023-05-10T22:57:36.226Z,82.86
2023-05-10T23:00:14.715Z,83.01
2023-05-10T23:02:43.948Z,82.70
2023-05-10T23:05:11.950Z,83.92
2023-05-10T23:07:40.625Z,84.37
2023-05-10T23:10:19.732Z,83.33
2023-05-10T23:12:47.942Z,83.39
2023-05-10T23:15:19.385Z,83.13
2023-05-10T23:17:49.289Z,83.34
2023-05-10T23:20:21.496Z,83.17
2023-05-10T23:22:50.970Z,83.64
2023-05-10T23:25:21.138Z,83.07
2023-05-10T23:27:49.377Z,83.61
2023-05-10T23:30:19.331Z,81.92
2023-05-10T23:32:48.983Z,80.47
2023-05-10T23:35:18.568Z,80.04
2023-05-10T23:37:46.489Z,79.18
2023-05-10T23:40:16.619Z,78.36
2023-05-10T23:42:48.884Z,78.97
2023-05-10T23:45:21.370Z,78.88
2023-05-10T23:47:51.963Z,78.24
2023-05-10T23:50:23.959Z,78.81
2023-05-10T23:52:53.548Z,78.47
2023-05-10T23:55:23.948Z,78.65
2023-05-10T23:57:58.863Z,79.18
